Time;durP1;ratioP1;P1;durP2;ratioP2;P2;SDS_P1;SDS_P2;PMS_P1;PMS_P2;Temp;Humidity;BMP_temperature;BMP_pressure;BME280_temperature;BME280_humidity;BME280_pressure;Samples;Min_cycle;Max_cycle;Signal;HPM_P1;HPM_P2
2023/10/11 00:02:08;;;;;;;27.95;12.02;;;15.00;99.90;;;;;;5007394;28;20030;-83
2023/10/11 00:04:34;;;;;;;30.02;11.85;;;15.00;99.90;;;;;;5007158;28;20022;-83
2023/10/11 00:07:00;;;;;;;27.58;12.05;;;15.00;99.90;;;;;;5006929;28;20036;-83
2023/10/11 00:09:35;;;;;;;26.70;12.02;;;15.10;99.90;;;;;;5006522;28;20033;-82
2023/10/11 00:12:04;;;;;;;23.70;11.85;;;15.10;99.90;;;;;;5007413;28;20033;-82
2023/10/11 00:14:31;;;;;;;23.10;11.90;;;15.10;99.90;;;;;;5006762;28;20073;-81
2023/10/11 00:16:57;;;;;;;24.38;12.20;;;15.10;99.90;;;;;;5007192;28;20029;-83
2023/10/11 00:19:28;;;;;;;29.00;11.20;;;15.10;99.90;;;;;;5006381;28;20514;-82
2023/10/11 00:21:54;;;;;;;;;;;15.10;99.90;;;;;;4987406;28;20030;-83
2023/10/11 00:24:23;;;;;;;21.45;9.95;;;15.10;99.90;;;;;;4991378;28;19916;-82
2023/10/11 00:26:49;;;;;;;21.40;10.02;;;15.00;99.90;;;;;;5004423;28;20030;-82
2023/10/11 00:29:15;;;;;;;20.30;10.25;;;15.00;99.90;;;;;;5005279;28;20567;-83
2023/10/11 00:31:41;;;;;;;22.88;10.60;;;15.00;99.90;;;;;;5006808;28;20034;-83
2023/10/11 00:34:10;;;;;;;29.20;11.18;;;15.10;99.90;;;;;;5001899;28;20037;-83
2023/10/11 00:36:36;;;;;;;25.85;10.32;;;15.00;99.90;;;;;;4986495;28;20019;-83
2023/10/11 00:39:05;;;;;;;22.92;10.10;;;15.10;99.90;;;;;;4986984;28;20096;-83
2023/10/11 00:41:31;;;;;;;24.08;9.75;;;15.00;99.90;;;;;;4987300;28;20041;-83
2023/10/11 00:43:57;;;;;;;18.73;9.27;;;15.00;99.90;;;;;;4986702;28;20042;-83
2023/10/11 00:46:36;;;;;;;22.25;9.75;;;15.00;99.90;;;;;;4987095;28;20086;-83
2023/10/11 00:51:55;;;;;;;30.65;10.85;;;15.00;99.90;;;;;;4985423;28;20208;-82
2023/10/11 00:54:21;;;;;;;23.15;10.23;;;15.10;99.90;;;;;;5006735;28;20523;-83
2023/10/11 00:56:48;;;;;;;24.55;10.30;;;15.10;99.90;;;;;;5003005;28;20041;-83
2023/10/11 00:59:21;;;;;;;18.42;10.57;;;15.10;99.90;;;;;;4995845;28;20037;-84
2023/10/11 01:01:46;;;;;;;23.48;10.48;;;15.20;99.90;;;;;;5004944;28;20026;-82
2023/10/11 01:04:15;;;;;;;24.80;10.57;;;15.20;99.90;;;;;;5004704;28;20052;-83
2023/10/11 01:06:41;;;;;;;30.65;10.63;;;15.20;99.90;;;;;;5004465;28;20030;-81
2023/10/11 01:09:26;;;;;;;29.13;9.80;;;15.20;99.90;;;;;;5006017;28;20113;-83
2023/10/11 01:11:52;;;;;;;22.35;10.10;;;15.30;99.90;;;;;;5005363;28;20021;-78
2023/10/11 01:14:17;;;;;;;24.33;11.32;;;15.30;99.90;;;;;;5004654;28;20052;-82
2023/10/11 01:16:43;;;;;;;26.30;10.23;;;15.30;99.90;;;;;;5005577;28;20116;-83
2023/10/11 01:19:13;;;;;;;23.77;10.23;;;15.30;99.90;;;;;;4992386;28;20392;-84
2023/10/11 01:21:39;;;;;;;27.73;10.40;;;15.40;99.90;;;;;;5004331;28;20025;-83
2023/10/11 01:24:08;;;;;;;19.73;9.85;;;15.50;99.90;;;;;;5006018;28;20881;-84
2023/10/11 01:26:34;;;;;;;28.02;10.52;;;15.40;99.90;;;;;;5006169;28;20037;-81
2023/10/11 01:29:01;;;;;;;24.08;10.48;;;15.40;99.90;;;;;;5005747;28;20491;-84
2023/10/11 01:31:32;;;;;;;22.88;10.50;;;15.40;99.90;;;;;;4999736;28;20026;-83
2023/10/11 01:33:58;;;;;;;;;;;15.40;99.90;;;;;;5001684;28;20052;-85
2023/10/11 01:36:26;;;;;;;21.88;9.90;;;15.50;99.90;;;;;;5003669;28;19910;-84
2023/10/11 01:38:51;;;;;;;23.60;10.40;;;15.60;99.90;;;;;;5004523;28;20022;-84
2023/10/11 01:41:28;;;;;;;21.30;9.77;;;15.60;99.90;;;;;;5001731;28;20113;-84
2023/10/11 01:43:56;;;;;;;22.33;10.70;;;15.60;99.90;;;;;;5002765;28;20494;-82
2023/10/11 01:46:35;;;;;;;21.52;10.55;;;15.60;99.90;;;;;;5005628;28;20390;-83
2023/10/11 01:49:01;;;;;;;26.88;11.52;;;15.70;99.90;;;;;;4997818;28;20053;-79
2023/10/11 01:51:27;;;;;;;26.38;11.45;;;15.70;99.90;;;;;;5005349;28;20495;-83
2023/10/11 01:53:57;;;;;;;26.13;11.43;;;15.70;99.90;;;;;;5007188;28;20046;-83
2023/10/11 01:56:24;;;;;;;28.60;11.13;;;15.70;99.90;;;;;;5007186;28;20461;-83
2023/10/11 01:58:53;;;;;;;25.73;10.70;;;15.80;99.90;;;;;;5018673;28;20076;-83
2023/10/11 02:01:22;;;;;;;22.35;10.63;;;15.80;99.90;;;;;;5010483;28;20057;-83
2023/10/11 02:03:53;;;;;;;27.60;12.45;;;15.90;99.90;;;;;;5005808;28;20045;-83
2023/10/11 02:06:20;;;;;;;27.30;11.73;;;16.00;99.90;;;;;;5006225;28;20060;-83
2023/10/11 02:08:45;;;;;;;25.42;11.60;;;16.00;99.90;;;;;;5007360;28;20038;-82
2023/10/11 02:11:12;;;;;;;30.98;11.48;;;16.10;99.90;;;;;;5006016;28;20121;-83
2023/10/11 02:13:43;;;;;;;28.08;10.60;;;16.10;99.90;;;;;;5006547;28;20706;-82
2023/10/11 02:16:14;;;;;;;31.42;11.20;;;16.10;99.90;;;;;;5006223;28;20096;-83
2023/10/11 02:18:43;;;;;;;20.88;10.48;;;16.20;99.90;;;;;;4993311;28;20034;-83
2023/10/11 02:21:09;;;;;;;22.95;10.93;;;16.20;99.90;;;;;;5007017;28;20034;-82
2023/10/11 02:23:42;;;;;;;23.45;10.68;;;16.30;99.90;;;;;;4998015;28;20871;-82
2023/10/11 02:26:14;;;;;;;25.10;10.63;;;16.30;99.90;;;;;;5003687;28;20026;-83
2023/10/11 02:28:40;;;;;;;26.00;10.77;;;16.40;99.90;;;;;;5005496;28;20029;-82
2023/10/11 02:31:07;;;;;;;25.33;10.75;;;16.40;99.90;;;;;;5006350;28;20034;-83
2023/10/11 02:33:33;;;;;;;24.38;10.63;;;16.50;99.90;;;;;;5005544;28;20026;-83
2023/10/11 02:36:08;;;;;;;29.70;10.90;;;16.40;99.90;;;;;;5005725;28;20038;-78
2023/10/11 02:38:47;;;;;;;21.92;10.57;;;16.50;99.90;;;;;;4982843;28;20035;-83
2023/10/11 02:41:25;;;;;;;21.13;10.07;;;16.50;99.90;;;;;;5002909;28;20072;-82
2023/10/11 02:43:52;;;;;;;26.67;10.88;;;16.40;99.90;;;;;;5006087;28;20033;-83
2023/10/11 02:46:23;;;;;;;21.98;10.20;;;16.40;99.90;;;;;;5006010;28;20387;-83
2023/10/11 02:48:49;;;;;;;18.48;10.07;;;16.40;99.90;;;;;;4999077;28;20057;-83
2023/10/11 02:51:17;;;;;;;21.73;9.90;;;16.30;99.90;;;;;;4986549;28;20034;-84
2023/10/11 02:53:46;;;;;;;21.17;9.93;;;16.20;99.90;;;;;;4987087;28;20046;-83
2023/10/11 02:56:13;;;;;;;22.02;10.73;;;16.20;99.90;;;;;;4987199;28;20642;-83
2023/10/11 02:58:39;;;;;;;24.05;10.07;;;16.10;99.90;;;;;;4990033;28;20893;-80
2023/10/11 03:01:14;;;;;;;21.70;10.00;;;16.00;99.90;;;;;;4985317;28;20039;-82
2023/10/11 03:03:41;;;;;;;21.33;9.85;;;16.00;99.90;;;;;;4970341;28;20026;-83
2023/10/11 03:06:07;;;;;;;20.42;9.73;;;15.90;99.90;;;;;;4988606;28;20846;-82
2023/10/11 03:08:33;;;;;;;19.27;10.25;;;16.00;99.90;;;;;;4989716;28;20105;-83
2023/10/11 03:11:04;;;;;;;25.75;9.93;;;16.00;99.90;;;;;;4971718;28;20078;-83
2023/10/11 03:13:31;;;;;;;22.52;10.73;;;16.00;99.90;;;;;;4989409;28;20045;-83
2023/10/11 03:15:59;;;;;;;25.55;10.20;;;16.10;99.90;;;;;;4989913;28;20042;-82
2023/10/11 03:18:27;;;;;;;24.02;9.85;;;16.10;99.90;;;;;;4990032;28;20037;-82
2023/10/11 03:21:09;;;;;;;22.13;9.48;;;16.20;99.90;;;;;;4972254;28;20484;-83
2023/10/11 03:23:47;;;;;;;21.73;8.93;;;16.20;99.90;;;;;;4989694;28;20484;-82
2023/10/11 03:26:31;;;;;;;22.42;8.40;;;16.30;99.90;;;;;;4972044;28;20026;-80
2023/10/11 03:29:04;;;;;;;20.25;8.38;;;16.30;99.90;;;;;;4989193;28;20039;-82
2023/10/11 03:31:39;;;;;;;17.27;8.43;;;16.40;99.90;;;;;;4989825;28;20097;-84
2023/10/11 03:34:14;;;;;;;22.35;7.90;;;16.40;99.90;;;;;;4971248;28;20069;-82
2023/10/11 03:36:43;;;;;;;18.33;7.80;;;16.30;99.90;;;;;;4987148;28;20046;-82
2023/10/11 03:39:18;;;;;;;19.65;7.45;;;16.20;99.90;;;;;;4984878;28;20042;-83
2023/10/11 03:41:47;;;;;;;16.45;7.50;;;16.10;99.90;;;;;;4989854;28;20038;-82
2023/10/11 03:44:17;;;;;;;19.38;8.18;;;16.10;99.90;;;;;;4989574;28;20057;-83
2023/10/11 03:46:56;;;;;;;21.98;8.38;;;16.00;99.90;;;;;;4989218;28;20015;-84
2023/10/11 03:51:50;;;;;;;17.98;8.20;;;15.90;99.90;;;;;;4985804;28;20034;-83
2023/10/11 03:54:23;;;;;;;18.08;8.50;;;15.80;99.90;;;;;;4989761;28;20096;-84
2023/10/11 03:56:53;;;;;;;21.63;7.55;;;15.80;99.90;;;;;;4989578;28;20078;-83
2023/10/11 03:59:25;;;;;;;20.00;8.00;;;15.80;99.90;;;;;;4989169;28;20038;-83
2023/10/11 04:01:53;;;;;;;24.08;7.97;;;15.80;99.90;;;;;;4994226;28;20022;-83
2023/10/11 04:04:23;;;;;;;23.40;8.20;;;15.80;99.90;;;;;;4986740;28;20137;-84
2023/10/11 04:06:51;;;;;;;25.10;8.25;;;15.80;99.90;;;;;;4988781;28;20035;-82
2023/10/11 04:09:37;;;;;;;23.98;8.20;;;15.90;99.90;;;;;;4988716;28;20053;-82
2023/10/11 04:12:10;;;;;;;24.40;8.75;;;15.90;99.90;;;;;;4989562;28;20042;-83
2023/10/11 04:14:47;;;;;;;28.08;8.93;;;16.00;99.90;;;;;;4992844;28;20064;-82
2023/10/11 04:17:15;;;;;;;27.15;8.68;;;16.10;99.90;;;;;;4988537;28;20106;-85
2023/10/11 04:19:41;;;;;;;26.55;8.18;;;16.20;99.90;;;;;;4989102;28;20496;-80
2023/10/11 04:22:16;;;;;;;24.73;9.20;;;16.20;99.90;;;;;;4988364;28;20465;-82
2023/10/11 04:24:43;;;;;;;23.45;8.38;;;16.30;99.90;;;;;;4989000;28;20042;-83
2023/10/11 04:29:47;;;;;;;18.00;8.68;;;16.40;99.90;;;;;;4969502;28;20097;-83
2023/10/11 04:32:14;;;;;;;23.02;8.23;;;16.40;99.90;;;;;;5004348;28;20509;-83
2023/10/11 04:34:48;;;;;;;20.10;7.95;;;16.50;99.90;;;;;;5004846;28;20036;-83
2023/10/11 04:37:27;;;;;;;23.83;7.85;;;16.50;99.90;;;;;;4988621;28;20034;-83
2023/10/11 04:40:22;;;;;;;19.27;7.25;;;16.50;99.90;;;;;;4988260;28;20084;-82
2023/10/11 04:42:42;;;;;;;17.10;8.55;;;16.60;99.90;;;;;;4988110;28;20046;-82
2023/10/11 04:45:21;;;;;;;20.45;8.02;;;16.60;99.90;;;;;;4987805;28;20399;-82
2023/10/11 04:47:56;;;;;;;18.85;7.90;;;16.60;99.90;;;;;;4988202;28;20030;-82
2023/10/11 04:50:23;;;;;;;22.13;8.30;;;16.60;99.90;;;;;;4975382;28;20085;-82
2023/10/11 04:52:49;;;;;;;21.73;7.82;;;16.70;99.90;;;;;;4969023;28;20023;-84
2023/10/11 04:55:19;;;;;;;22.35;8.32;;;16.70;99.90;;;;;;4968575;28;20054;-83
2023/10/11 04:58:04;;;;;;;24.80;8.20;;;16.70;99.90;;;;;;4968811;28;20035;-81
2023/10/11 05:00:43;;;;;;;23.73;8.30;;;16.70;99.90;;;;;;4968757;28;20353;-83
2023/10/11 05:03:09;;;;;;;19.00;7.75;;;16.70;99.90;;;;;;4952279;28;20043;-83
2023/10/11 05:05:35;;;;;;;18.85;7.18;;;16.70;99.90;;;;;;4984113;28;20041;-83
2023/10/11 05:08:20;;;;;;;19.15;8.13;;;16.80;99.90;;;;;;4988021;28;20116;-82
2023/10/11 05:10:46;;;;;;;19.33;8.20;;;16.70;99.90;;;;;;4988292;28;20093;-83
2023/10/11 05:13:15;;;;;;;25.10;8.68;;;16.80;99.90;;;;;;4987636;28;20034;-82
2023/10/11 05:15:47;;;;;;;21.92;8.43;;;16.80;99.90;;;;;;4996786;28;20030;-82
2023/10/11 05:18:18;;;;;;;21.70;8.07;;;16.80;99.90;;;;;;4985631;28;20043;-84
2023/10/11 05:20:57;;;;;;;17.55;7.88;;;16.80;99.90;;;;;;4976817;28;20853;-80
2023/10/11 05:23:32;;;;;;;26.90;8.07;;;16.80;99.90;;;;;;4988096;28;20049;-83
2023/10/11 05:25:58;;;;;;;25.65;9.02;;;16.90;99.90;;;;;;4987634;28;20128;-84
2023/10/11 05:28:27;;;;;;;24.70;9.25;;;16.80;99.90;;;;;;5002534;28;20025;-83
2023/10/11 05:31:44;;;;;;;23.80;9.88;;;16.90;99.90;;;;;;5006851;28;20803;-83
2023/10/11 05:34:12;;;;;;;26.92;9.30;;;16.90;99.90;;;;;;4983465;28;20062;-83
2023/10/11 05:36:49;;;;;;;25.75;9.60;;;16.90;99.90;;;;;;4987501;28;20670;-83
2023/10/11 05:52:56;;;;;;;24.95;9.95;;;16.90;99.90;;;;;;5006400;28;20080;-83
2023/10/11 05:55:24;;;;;;;24.65;9.30;;;16.90;99.90;;;;;;5004826;28;20135;-83
2023/10/11 05:57:50;;;;;;;32.83;10.27;;;17.00;99.90;;;;;;5005718;28;20068;-82
2023/10/11 06:00:23;;;;;;;27.42;10.77;;;17.00;99.90;;;;;;5002101;28;20476;-83
2023/10/11 06:02:51;;;;;;;23.30;9.98;;;17.00;99.90;;;;;;4986360;28;20046;-83
2023/10/11 06:05:22;;;;;;;32.45;10.98;;;17.00;99.90;;;;;;5006832;28;20488;-83
2023/10/11 06:08:00;;;;;;;29.35;10.63;;;17.00;99.90;;;;;;5006816;28;20033;-84
2023/10/11 06:10:29;;;;;;;32.88;10.77;;;17.00;99.90;;;;;;5001454;28;20034;-84
2023/10/11 06:12:58;;;;;;;30.52;10.57;;;17.10;99.90;;;;;;5005850;28;20048;-83
2023/10/11 06:15:23;;;;;;;33.80;11.75;;;17.00;99.90;;;;;;5005773;28;20066;-83
2023/10/11 06:17:49;;;;;;;22.83;11.55;;;17.10;99.90;;;;;;5016478;28;20641;-82
2023/10/11 06:20:27;;;;;;;31.67;11.73;;;17.10;99.90;;;;;;5005933;28;20038;-82
2023/10/11 06:22:56;;;;;;;29.75;11.20;;;17.10;99.90;;;;;;5016710;28;20057;-84
2023/10/11 06:25:23;;;;;;;30.10;11.23;;;17.10;99.90;;;;;;5006551;28;20069;-85
2023/10/11 06:30:25;;;;;;;32.30;11.02;;;17.10;99.90;;;;;;5006603;28;20034;-80
2023/10/11 06:32:52;;;;;;;30.75;11.23;;;17.10;99.90;;;;;;4994380;28;20051;-83
2023/10/11 06:35:24;;;;;;;28.48;11.13;;;17.10;99.90;;;;;;5008580;28;20041;-85
2023/10/11 06:37:56;;;;;;;27.17;10.90;;;17.10;99.90;;;;;;5004989;28;20045;-86
2023/10/11 06:40:47;;;;;;;27.33;10.88;;;17.10;99.90;;;;;;5009243;28;20034;-85
2023/10/11 06:43:13;;;;;;;27.93;11.30;;;17.20;99.90;;;;;;5011217;28;20602;-83
2023/10/11 06:45:42;;;;;;;24.08;11.23;;;17.10;99.90;;;;;;5009928;28;20362;-85
2023/10/11 06:48:10;;;;;;;29.42;10.63;;;17.20;99.90;;;;;;5013428;28;20077;-86
2023/10/11 06:50:37;;;;;;;27.25;10.55;;;17.20;99.90;;;;;;5029795;28;20026;-85
2023/10/11 06:53:06;;;;;;;24.40;10.25;;;17.20;99.90;;;;;;5005517;28;20130;-84
2023/10/11 06:55:33;;;;;;;31.20;10.90;;;17.20;99.90;;;;;;5010673;28;20034;-85
2023/10/11 06:58:03;;;;;;;27.92;10.13;;;17.30;99.90;;;;;;5010051;28;20025;-85
2023/10/11 07:00:29;;;;;;;24.30;10.23;;;17.20;99.90;;;;;;5009831;28;20445;-85
2023/10/11 07:05:42;;;;;;;27.67;9.13;;;17.30;99.90;;;;;;5017945;28;20448;-84
2023/10/11 07:08:10;;;;;;;23.52;11.15;;;17.30;99.90;;;;;;5029815;28;20436;-85
2023/10/11 07:10:40;;;;;;;23.17;9.00;;;17.40;99.90;;;;;;5023833;28;20037;-84
2023/10/11 07:13:12;;;;;;;26.90;10.25;;;17.40;99.90;;;;;;5025901;28;20018;-81
2023/10/11 07:15:46;;;;;;;26.15;8.95;;;17.40;99.90;;;;;;5029296;28;20041;-85
2023/10/11 07:18:27;;;;;;;17.60;8.90;;;17.40;99.90;;;;;;5006660;28;20030;-84
2023/10/11 07:21:09;;;;;;;24.88;8.75;;;17.40;99.90;;;;;;5009859;28;20092;-76
2023/10/11 07:23:55;;;;;;;21.95;9.63;;;17.40;99.90;;;;;;4995959;28;20055;-76
2023/10/11 07:28:59;;;;;;;20.65;9.10;;;17.50;99.90;;;;;;5011075;28;20065;-77
2023/10/11 07:31:32;;;;;;;18.80;8.65;;;17.70;99.90;;;;;;5011514;28;20033;-77
2023/10/11 07:34:06;;;;;;;21.33;9.63;;;17.80;99.90;;;;;;5010083;28;20060;-77
2023/10/11 07:36:33;;;;;;;23.80;9.23;;;17.80;99.90;;;;;;4994009;28;20022;-77
2023/10/11 07:39:14;;;;;;;22.17;9.57;;;18.00;99.90;;;;;;5002793;28;20110;-76
2023/10/11 07:41:42;;;;;;;20.88;9.73;;;18.10;99.90;;;;;;4984138;28;20072;-76
2023/10/11 07:44:08;;;;;;;18.00;9.07;;;18.10;99.90;;;;;;5002739;28;20036;-75
2023/10/11 07:46:37;;;;;;;20.92;10.23;;;18.10;99.90;;;;;;5001962;28;20025;-75
2023/10/11 07:49:03;;;;;;;21.92;10.15;;;18.10;99.90;;;;;;5005976;28;20054;-76
2023/10/11 07:51:30;;;;;;;28.58;11.05;;;18.10;99.90;;;;;;4994945;28;20541;-75
2023/10/11 07:53:56;;;;;;;29.25;12.18;;;18.00;99.90;;;;;;4999755;28;20081;-76
2023/10/11 07:56:21;;;;;;;24.33;11.88;;;17.90;99.90;;;;;;4996821;28;20030;-76
2023/10/11 07:58:48;;;;;;;24.40;11.30;;;17.90;99.90;;;;;;4997655;28;20332;-77
2023/10/11 08:01:30;;;;;;;27.98;12.68;;;17.80;99.90;;;;;;4996998;28;20034;-76
2023/10/11 08:03:57;;;;;;;30.40;12.45;;;17.80;99.90;;;;;;4995737;28;20315;-76
2023/10/11 08:06:26;;;;;;;23.92;12.48;;;17.80;99.90;;;;;;4996718;28;20034;-77
2023/10/11 08:09:01;;;;;;;27.45;12.77;;;17.80;99.90;;;;;;4997189;28;20026;-76
2023/10/11 08:11:36;;;;;;;23.08;11.15;;;17.90;99.90;;;;;;4995914;28;20050;-76
2023/10/11 08:14:13;;;;;;;22.00;10.80;;;17.90;99.90;;;;;;4994695;28;20046;-76
2023/10/11 08:16:40;;;;;;;18.05;10.10;;;17.90;99.90;;;;;;4989895;28;20139;-77
2023/10/11 08:19:06;;;;;;;18.90;10.13;;;18.00;99.90;;;;;;4986622;28;20092;-76
2023/10/11 08:21:32;;;;;;;24.48;11.10;;;18.10;99.90;;;;;;4996059;28;20029;-77
2023/10/11 08:23:57;;;;;;;25.38;11.95;;;18.20;99.90;;;;;;5004730;28;20033;-76
2023/10/11 08:26:24;;;;;;;20.25;11.63;;;18.10;99.90;;;;;;4998194;28;20137;-78
2023/10/11 08:28:51;;;;;;;25.55;10.77;;;18.10;99.90;;;;;;5000772;28;20038;-80
2023/10/11 08:34:18;;;;;;;20.85;10.07;;;18.00;99.90;;;;;;4987025;28;20058;-75
2023/10/11 08:36:44;;;;;;;19.05;9.60;;;18.00;99.90;;;;;;4999305;28;20037;-76
2023/10/11 08:39:13;;;;;;;20.50;9.57;;;18.00;99.90;;;;;;5000154;28;20034;-77
2023/10/11 08:41:43;;;;;;;15.57;7.95;;;18.00;99.90;;;;;;4999702;28;20029;-77
2023/10/11 08:44:15;;;;;;;16.30;8.73;;;18.00;99.90;;;;;;4998364;28;20128;-76
2023/10/11 08:46:51;;;;;;;17.55;7.90;;;17.90;99.90;;;;;;4998977;28;20037;-76
2023/10/11 08:49:17;;;;;;;20.08;8.00;;;18.00;99.90;;;;;;4991768;28;20034;-77
2023/10/11 08:51:43;;;;;;;19.77;7.97;;;18.00;99.90;;;;;;4978133;28;20038;-76
2023/10/11 08:54:16;;;;;;;18.85;7.38;;;18.00;99.90;;;;;;4980411;28;20474;-76
2023/10/11 08:56:54;;;;;;;16.25;7.25;;;18.00;99.90;;;;;;4981295;28;20034;-77
2023/10/11 08:59:25;;;;;;;20.92;7.82;;;18.00;99.90;;;;;;4981584;28;20119;-76
2023/10/11 09:01:52;;;;;;;20.88;7.65;;;18.10;99.90;;;;;;4980015;28;20524;-76
2023/10/11 09:04:18;;;;;;;19.05;8.40;;;18.10;99.90;;;;;;4963764;28;20035;-76
2023/10/11 09:06:45;;;;;;;18.13;7.70;;;18.20;99.90;;;;;;4979397;28;20137;-76
2023/10/11 09:09:33;;;;;;;13.27;7.55;;;18.20;99.90;;;;;;4980269;28;20073;-77
2023/10/11 09:11:59;;;;;;;21.98;7.57;;;18.30;99.90;;;;;;4968988;28;20745;-76
2023/10/11 09:14:27;;;;;;;20.40;8.15;;;18.30;99.90;;;;;;4980867;28;20140;-78
2023/10/11 09:17:02;;;;;;;21.13;7.93;;;18.20;99.90;;;;;;4978107;28;20062;-75
2023/10/11 09:19:29;;;;;;;21.42;9.32;;;18.20;99.90;;;;;;4978065;28;20026;-76
2023/10/11 09:22:04;;;;;;;20.65;8.27;;;18.10;99.90;;;;;;4980840;28;20125;-76
2023/10/11 09:24:43;;;;;;;19.05;7.72;;;18.10;99.90;;;;;;4978645;28;20158;-76
2023/10/11 09:29:38;;;;;;;21.08;9.18;;;18.10;99.90;;;;;;4979244;28;20459;-76
2023/10/11 09:32:05;;;;;;;20.55;8.82;;;18.10;99.90;;;;;;4993289;28;20033;-76
2023/10/11 09:34:31;;;;;;;17.45;7.93;;;18.20;99.90;;;;;;4981676;28;20052;-75
2023/10/11 09:36:58;;;;;;;21.88;9.55;;;18.20;99.90;;;;;;4979399;28;20046;-77
2023/10/11 09:39:29;;;;;;;25.70;9.27;;;18.20;99.90;;;;;;4979612;28;20088;-77
2023/10/11 09:42:02;;;;;;;21.30;8.70;;;18.20;99.90;;;;;;4980290;28;20029;-76
2023/10/11 09:44:37;;;;;;;21.70;8.20;;;18.20;99.90;;;;;;4981218;28;20295;-76
2023/10/11 09:47:07;;;;;;;15.88;8.25;;;18.20;99.90;;;;;;4980630;28;20034;-76
2023/10/11 09:49:41;;;;;;;23.75;8.45;;;18.50;99.90;;;;;;5001947;28;20045;-76
2023/10/11 09:52:11;;;;;;;24.67;8.48;;;18.80;99.90;;;;;;5008289;28;20030;-76
2023/10/11 09:54:39;;;;;;;23.85;9.02;;;19.20;99.90;;;;;;4997913;28;20038;-75
2023/10/11 09:57:29;;;;;;;29.30;9.32;;;19.40;99.90;;;;;;5000810;28;20129;-76
2023/10/11 10:00:16;;;;;;;22.48;8.50;;;19.50;99.90;;;;;;4992436;28;20036;-76
2023/10/11 10:02:44;;;;;;;18.83;7.88;;;19.60;99.90;;;;;;4985367;28;20027;-75
2023/10/11 10:05:10;;;;;;;22.83;8.30;;;19.60;99.90;;;;;;4963406;28;20038;-76
2023/10/11 10:10:26;;;;;;;22.20;7.28;;;19.80;99.90;;;;;;4995310;28;20053;-76
2023/10/11 10:12:54;;;;;;;20.08;7.45;;;19.80;99.90;;;;;;4994850;28;20034;-76
2023/10/11 10:15:23;;;;;;;22.27;7.38;;;19.90;99.90;;;;;;4999723;28;20038;-77
2023/10/11 10:18:00;;;;;;;19.98;7.45;;;19.90;99.90;;;;;;4994019;28;20086;-76
2023/10/11 10:20:34;;;;;;;17.77;6.50;;;19.90;99.90;;;;;;4999386;28;20025;-76
2023/10/11 10:23:15;;;;;;;18.52;6.63;;;19.80;99.90;;;;;;4999217;28;20037;-76
2023/10/11 10:25:50;;;;;;;26.33;7.82;;;19.70;99.90;;;;;;4997980;28;20030;-75
2023/10/11 10:28:39;;;;;;;21.08;7.28;;;19.60;99.90;;;;;;4997674;28;20482;-77
2023/10/11 10:31:16;;;;;;;23.52;8.10;;;19.50;99.90;;;;;;5000224;28;20029;-76
2023/10/11 10:34:05;;;;;;;28.60;7.93;;;19.20;99.90;;;;;;4999832;28;20563;-77
2023/10/11 10:36:31;;;;;;;33.08;8.27;;;19.10;99.90;;;;;;4998889;28;20049;-76
2023/10/11 10:39:33;;;;;;;23.42;8.18;;;19.20;99.90;;;;;;4999502;28;20060;-78
2023/10/11 10:42:15;;;;;;;25.13;8.20;;;19.40;99.90;;;;;;4998820;28;20046;-77
2023/10/11 10:44:53;;;;;;;27.00;7.32;;;19.80;99.90;;;;;;4980185;28;20033;-76
2023/10/11 10:47:28;;;;;;;23.70;6.85;;;20.20;99.90;;;;;;4993884;28;20627;-74
2023/10/11 10:49:55;;;;;;;22.55;6.35;;;20.50;99.90;;;;;;4990626;28;20065;-76
2023/10/11 10:52:25;;;;;;;26.70;6.55;;;20.80;99.90;;;;;;4992411;28;20045;-77
2023/10/11 10:55:05;;;;;;;21.57;6.70;;;21.20;99.90;;;;;;5001405;28;20061;-76
2023/10/11 10:57:32;;;;;;;26.67;6.88;;;21.50;99.90;;;;;;5018402;28;20302;-74
2023/10/11 11:00:05;;;;;;;26.80;6.07;;;21.50;99.90;;;;;;5021674;28;20018;-76
2023/10/11 11:02:36;;;;;;;26.50;6.40;;;21.30;99.90;;;;;;5021558;28;20061;-77
2023/10/11 11:05:01;;;;;;;20.40;5.70;;;21.00;99.90;;;;;;5012372;28;20504;-77
2023/10/11 11:07:27;;;;;;;24.80;6.05;;;20.90;99.90;;;;;;5000349;28;20101;-77
2023/10/11 11:09:57;;;;;;;17.02;5.63;;;21.00;99.90;;;;;;5000327;28;20046;-77
2023/10/11 11:12:28;;;;;;;23.85;5.55;;;21.10;99.90;;;;;;5000351;28;20033;-76
2023/10/11 11:14:55;;;;;;;25.88;5.97;;;21.10;99.90;;;;;;4999782;28;20041;-76
2023/10/11 11:17:23;;;;;;;19.85;5.72;;;21.10;99.90;;;;;;4994152;28;20558;-77
2023/10/11 11:20:15;;;;;;;14.93;5.07;;;21.20;99.90;;;;;;5003577;28;20037;-77
2023/10/11 11:22:45;;;;;;;17.83;5.30;;;21.30;99.90;;;;;;5002859;28;20129;-76
2023/10/11 11:25:26;;;;;;;20.58;5.30;;;21.30;99.90;;;;;;5004347;28;20029;-76
2023/10/11 11:28:05;;;;;;;;;;;21.40;99.90;;;;;;4994179;28;20036;-77
2023/10/11 11:30:35;;;;;;;15.63;4.93;;;21.40;99.90;;;;;;4985961;28;20068;-77
2023/10/11 11:33:13;;;;;;;21.42;4.88;;;21.40;99.90;;;;;;4994191;28;20041;-77
2023/10/11 11:35:52;;;;;;;15.52;4.72;;;21.30;99.90;;;;;;4998867;28;20030;-77
2023/10/11 11:38:23;;;;;;;19.25;5.35;;;21.30;99.90;;;;;;4996928;28;20041;-77
2023/10/11 11:40:59;;;;;;;16.63;4.85;;;21.40;99.90;;;;;;4998403;28;20038;-77
2023/10/11 11:43:38;;;;;;;20.85;4.72;;;21.40;99.90;;;;;;4997456;28;20021;-77
2023/10/11 11:46:04;;;;;;;13.15;4.32;;;21.40;99.90;;;;;;4989536;28;20053;-77
2023/10/11 11:48:40;;;;;;;11.73;4.88;;;21.20;99.90;;;;;;4990781;28;20030;-76
2023/10/11 11:51:06;;;;;;;9.45;3.95;;;20.90;99.90;;;;;;4988621;28;20118;-77
2023/10/11 11:53:31;;;;;;;15.88;5.15;;;20.90;99.90;;;;;;4996900;28;20025;-76
2023/10/11 11:55:58;;;;;;;14.35;4.50;;;21.20;99.90;;;;;;4995617;28;20066;-76
2023/10/11 11:58:23;;;;;;;11.60;4.57;;;21.50;99.90;;;;;;4988362;28;20058;-77
2023/10/11 12:01:31;;;;;;;15.07;4.70;;;21.60;99.90;;;;;;4996377;28;20032;-77
2023/10/11 12:03:37;;;;;;;11.73;3.90;;;21.90;99.90;;;;;;4991053;28;20046;-77
2023/10/11 12:06:21;;;;;;;11.82;4.60;;;22.20;99.90;;;;;;4999280;28;20088;-77
2023/10/11 12:08:48;;;;;;;14.05;4.00;;;22.20;99.90;;;;;;4987336;28;20033;-77
2023/10/11 12:11:15;;;;;;;14.38;4.80;;;22.30;99.90;;;;;;4997649;28;20042;-76
2023/10/11 12:13:41;;;;;;;16.80;4.78;;;22.20;99.90;;;;;;4984975;28;20066;-77
2023/10/11 12:16:09;;;;;;;16.33;5.57;;;22.20;99.90;;;;;;4996201;28;20112;-77
2023/10/11 12:18:35;;;;;;;15.75;5.15;;;21.90;99.90;;;;;;4998028;28;20215;-77
2023/10/11 12:21:10;;;;;;;14.77;4.78;;;21.70;99.90;;;;;;4987091;28;20149;-77
2023/10/11 12:23:48;;;;;;;19.77;6.43;;;21.60;99.90;;;;;;4996747;28;20025;-76
2023/10/11 12:26:17;;;;;;;17.00;6.70;;;21.60;99.90;;;;;;5001107;28;20037;-73
2023/10/11 12:28:47;;;;;;;30.40;8.07;;;21.70;99.90;;;;;;5003260;28;20037;-76
2023/10/11 12:31:12;;;;;;;18.38;7.53;;;21.60;99.90;;;;;;4998421;28;20030;-77
2023/10/11 12:33:39;;;;;;;13.50;6.53;;;21.20;99.90;;;;;;5000432;28;20045;-77
2023/10/11 12:36:06;;;;;;;19.23;7.57;;;21.00;99.90;;;;;;4993646;28;20035;-78
2023/10/11 12:38:39;;;;;;;15.02;7.82;;;20.90;99.90;;;;;;4994820;28;20823;-74
2023/10/11 12:41:05;;;;;;;17.83;7.88;;;20.70;99.90;;;;;;5063507;23;20064;-73
2023/10/11 12:43:32;;;;;;;13.30;7.80;;;20.60;99.90;;;;;;5066827;28;20032;-76
2023/10/11 12:46:01;;;;;;;16.40;7.88;;;20.60;99.90;;;;;;5061421;28;20035;-74
2023/10/11 12:48:27;;;;;;;33.22;10.07;;;20.60;99.90;;;;;;5069864;28;20028;-75
2023/10/11 12:50:53;;;;;;;66.50;20.88;;;20.50;99.90;;;;;;5071188;28;20028;-76
2023/10/11 12:53:18;;;;;;;17.38;8.70;;;20.50;99.90;;;;;;4712465;28;9999708;-74
2023/10/11 12:55:49;;;;;;;15.05;8.70;;;20.40;99.90;;;;;;5071218;28;20388;-76
2023/10/11 12:58:16;;;;;;;19.10;9.45;;;20.20;99.90;;;;;;5045177;28;20024;-75
2023/10/11 13:00:51;;;;;;;23.70;8.07;;;20.20;99.90;;;;;;5069142;28;20295;-73
2023/10/11 13:03:25;;;;;;;16.15;8.35;;;20.10;99.90;;;;;;5068932;28;20426;-75
2023/10/11 13:05:52;;;;;;;18.80;9.23;;;19.90;99.90;;;;;;5066687;28;20275;-75
2023/10/11 13:08:24;;;;;;;19.10;8.27;;;19.80;99.90;;;;;;5065616;28;20046;-77
2023/10/11 13:10:51;;;;;;;13.05;8.60;;;19.80;99.90;;;;;;5077019;28;20024;-76
2023/10/11 13:13:17;;;;;;;17.70;9.10;;;19.90;99.90;;;;;;5078324;28;20151;-74
2023/10/11 13:15:59;;;;;;;17.05;9.50;;;19.90;99.90;;;;;;5077413;28;20069;-73
2023/10/11 13:18:39;;;;;;;23.42;8.63;;;19.90;99.90;;;;;;5070446;28;20016;-74
2023/10/11 13:21:10;;;;;;;17.52;8.48;;;20.00;99.90;;;;;;5074197;28;20118;-75
2023/10/11 13:23:36;;;;;;;24.25;10.32;;;20.30;99.90;;;;;;5075839;28;20191;-73
2023/10/11 13:26:09;;;;;;;18.88;9.63;;;20.40;99.90;;;;;;5075879;28;20036;-74
2023/10/11 13:28:35;;;;;;;19.35;9.10;;;20.40;99.90;;;;;;5073234;28;20504;-73
2023/10/11 13:31:02;;;;;;;16.95;9.60;;;20.50;99.90;;;;;;5078514;28;20031;-76